Seznam meteostanic stanic Slunecno.cz
Reklama

Seznam meteostanic a jejich METAR

Vyhledat místa podle abecedy:
A B C D E F G H I J K L M N O P Q R S T U V W X Y Z

Filtrovat:

ID stanice:
a/nebo
Název místa (fulltext):
 
Místo (ID)Naposledy načteno 
Brno - Tuřany (Brno/Tu) 18.08.2019 02:00 UTC Zobrazit data
Místo: Brno - Tuřany
Teplota: 18 °C (pocitová: 17.8 °C)
Vítr: 1 m/s z(e) 180°
Počasí: skoro zataženo
Dohlednost: 30 km
Zákl. oblačnosti: 7/8 2100 m
Vlhkost: 88%
Červená - Opava (Cervena/uL) 18.08.2019 02:00 UTC Zobrazit data
Místo: Červená - Opava
Teplota: 16 °C (pocitová: 13.5 °C)
Vítr: 4 m/s z(e) 220°
Počasí: zataženo
Dohlednost: 35 km
Zákl. oblačnosti: 2/8 1410 m;6/8 2400 m
Vlhkost: 72%
České Budějovice (C.Budej/po) 18.08.2019 02:00 UTC Zobrazit data
Místo: České Budějovice
Teplota: 18 °C (pocitová: 24.3 °C)
Vítr: 0 m/s z(e) 0°
Počasí: skoro zataženo
Dohlednost: 35 km
Zákl. oblačnosti: 1/8 2700 m;5/8 3300 m
Vlhkost: 78%
Cheb (Cheb) 18.08.2019 02:00 UTC Zobrazit data
Místo: Cheb
Teplota: 16 °C (pocitová: 15.3 °C)
Vítr: 1 m/s z(e) 180°
Počasí: zataženo
Dohlednost: 35 km
Zákl. oblačnosti: 8/8 1380 m
Vlhkost: 83%
Chotusice - Čáslav (Caslav) 18.08.2019 02:00 UTC Zobrazit data
Místo: Chotusice - Čáslav
Teplota: 19 °C (pocitová: 18.5 °C)
Vítr: 2 m/s z(e) 160°
Počasí: skoro zataženo
Dohlednost: 20 km
Zákl. oblačnosti: 7/8 1800 m
Vlhkost: 68%
Churáňov (Churanov) 18.08.2019 02:00 UTC Zobrazit data
Místo: Churáňov
Teplota: 14 °C (pocitová: 10.1 °C)
Vítr: 6 m/s z(e) 240°
Počasí: zataženo
Dohlednost: 35 km
Zákl. oblačnosti: 4/8 2100 m;8/8 3900 m
Vlhkost: 82%
Doksany - Litoměřice (Doksany) 18.08.2019 02:00 UTC Zobrazit data
Místo: Doksany - Litoměřice
Teplota: 18 °C (pocitová: 16.7 °C)
Vítr: 3 m/s z(e) 160°
Počasí: zataženo
Dohlednost: 35 km
Zákl. oblačnosti: 1/8 2100 m;8/8 2700 m
Vlhkost: 78%
Dukovany (Dukovany) 18.08.2019 02:00 UTC Zobrazit data
Místo: Dukovany
Teplota: 17 °C (pocitová: 15.9 °C)
Vítr: 2 m/s z(e) 80°
Počasí: zataženo
Dohlednost: 30 km
Zákl. oblačnosti: 8/8 1800 m
Vlhkost: 77%
Holešov (Holesov) 18.08.2019 02:00 UTC Zobrazit data
Místo: Holešov
Teplota: 20 °C (pocitová: 19 °C)
Vítr: 4 m/s z(e) 130°
Počasí: zataženo
Dohlednost: 35 km
Zákl. oblačnosti: 8/8 2100 m
Vlhkost: 64%
Kadaň - Tušimice (Tusimice) 18.08.2019 02:00 UTC Zobrazit data
Místo: Kadaň - Tušimice
Teplota: 18 °C (pocitová: 17.2 °C)
Vítr: 2 m/s z(e) 210°
Počasí: zataženo
Dohlednost: 35 km
Zákl. oblačnosti: 8/8 2100 m
Vlhkost: 78%
Karlovy Vary (K.Vary) 18.08.2019 02:00 UTC Zobrazit data
Místo: Karlovy Vary
Teplota: 16 °C (pocitová: 14.6 °C)
Vítr: 2 m/s z(e) 230°
Počasí: zataženo
Dohlednost: 50 km
Zákl. oblačnosti: 6/8 540 m;7/8 3000 m
Vlhkost: 83%
Kocelovice (Kocelovice) 18.08.2019 02:00 UTC Zobrazit data
Místo: Kocelovice
Teplota: 18 °C (pocitová: 17.2 °C)
Vítr: 2 m/s z(e) 240°
Počasí: zataženo
Dohlednost: 35 km
Zákl. oblačnosti: 7/8 2100 m;8/8 3300 m
Vlhkost: 73%
Kopisty (Kopisty) 17.08.2019 21:00 UTC Zobrazit data
Místo: Kopisty
Teplota: 17 °C (pocitová: 23.7 °C)
Vítr: 0 m/s z(e) 0°
Počasí: zataženo
Dohlednost: 29 km
Zákl. oblačnosti: 8/8 4800 m
Vlhkost: 88%
Kostelní Myslová (K.Myslova) 18.08.2019 02:00 UTC Zobrazit data
Místo: Kostelní Myslová
Teplota: 16 °C (pocitová: 15.3 °C)
Vítr: 1 m/s z(e) 0°
Počasí: zataženo
Dohlednost: 35 km
Zákl. oblačnosti: 8/8 1440 m
Vlhkost: 83%
Křešín - Kramolín (Kramolin) 18.08.2019 02:00 UTC Zobrazit data
Místo: Křešín - Kramolín
Teplota: 15 °C (pocitová: 14.1 °C)
Vítr: 1 m/s z(e) 0°
Počasí: skoro zataženo
Dohlednost: 35 km
Zákl. oblačnosti: 1/8 2100 m;5/8 3000 m
Vlhkost: 88%
Kuchařovice - Znojmo (Kucharovic) 18.08.2019 02:00 UTC Zobrazit data
Místo: Kuchařovice - Znojmo
Teplota: 18 °C (pocitová: 16.7 °C)
Vítr: 3 m/s z(e) 160°
Počasí: déšť
Dohlednost: 9 km
Zákl. oblačnosti: 1/8 360 m;8/8 1500 m
Vlhkost: 83%
Liberec (Liberec) 18.08.2019 02:00 UTC Zobrazit data
Místo: Liberec
Teplota: 18 °C (pocitová: 17.2 °C)
Vítr: 2 m/s z(e) 120°
Počasí: zataženo
Dohlednost: 35 km
Zákl. oblačnosti: 8/8 1320 m
Vlhkost: 64%
Luká (Luka) 18.08.2019 02:00 UTC Zobrazit data
Místo: Luká
Teplota: 18 °C (pocitová: 17.8 °C)
Vítr: 1 m/s z(e) 220°
Počasí: zataženo
Dohlednost: 35 km
Zákl. oblačnosti: 8/8 1500 m
Vlhkost: 64%
Lysá Hora (Lysa Hora) 18.08.2019 02:00 UTC Zobrazit data
Místo: Lysá Hora
Teplota: 13 °C (pocitová: 10 °C)
Vítr: 3 m/s z(e) 250°
Počasí: zataženo
Dohlednost: 35 km
Zákl. oblačnosti: 7/8 1140 m
Vlhkost: 77%
Milešovka (Milesovka) 18.08.2019 02:00 UTC Zobrazit data
Místo: Milešovka
Teplota: 15 °C (pocitová: 11.2 °C)
Vítr: 7 m/s z(e) 230°
Počasí: zataženo
Dohlednost: 65 km
Zákl. oblačnosti: 4/8 1290 m;5/8 1500 m
Vlhkost: 82%
Mošnov (Ostrava/Mo) 18.08.2019 02:00 UTC Zobrazit data
Místo: Mošnov
Teplota: 17 °C (pocitová: 15.9 °C)
Vítr: 2 m/s z(e) 210°
Počasí: zataženo
Dohlednost: 20 km
Zákl. oblačnosti: 8/8 2100 m
Vlhkost: 94%
Náměšť nad Oslavou (Namest n/O) 18.08.2019 02:00 UTC Zobrazit data
Místo: Náměšť nad Oslavou
Teplota: 18 °C (pocitová: 17.2 °C)
Vítr: 2 m/s z(e) 110°
Počasí: zataženo
Dohlednost: 30 km
Zákl. oblačnosti: 8/8 1800 m
Vlhkost: 64%
Pardubice (Pardubice) 18.08.2019 02:00 UTC Zobrazit data
Místo: Pardubice
Teplota: 19 °C (pocitová: 24.9 °C)
Vítr: 0 m/s z(e) 0°
Počasí: zataženo
Dohlednost: 20 km
Zákl. oblačnosti: 8/8 1800 m
Vlhkost: 68%
Pec pod Sněžkou (Pec p.Snez) 18.08.2019 02:00 UTC Zobrazit data
Místo: Pec pod Sněžkou
Teplota: 13 °C (pocitová: 11.7 °C)
Vítr: 1 m/s z(e) 0°
Počasí: zataženo
Dohlednost: 3700 m
Zákl. oblačnosti: 1/8 870 m;4/8 2400 m
Vlhkost: 88%
Plzeň město - Mikulka (Plzen/Miku) 18.08.2019 02:00 UTC Zobrazit data
Místo: Plzeň město - Mikulka
Teplota: 17 °C (pocitová: 15.3 °C)
Vítr: 3 m/s z(e) 210°
Počasí: zataženo
Dohlednost: 35 km
Zákl. oblačnosti: 8/8 2100 m
Vlhkost: 88%
Polom (Polom) 18.08.2019 02:00 UTC Zobrazit data
Místo: Polom
Teplota: 15 °C (pocitová: 12.7 °C)
Vítr: 3 m/s z(e) 160°
Počasí: zataženo
Dohlednost: 30 km
Zákl. oblačnosti: 2/8 1380 m;7/8 3000 m
Vlhkost: 77%
Praha - Karlov (Praha/Kar) 18.08.2019 02:00 UTC Zobrazit data
Místo: Praha - Karlov
Teplota: 18 °C (pocitová: 16.7 °C)
Vítr: 3 m/s z(e) 200°
Počasí: zataženo
Dohlednost: 35 km
Zákl. oblačnosti: 1/8 2100 m;7/8 2700 m
Vlhkost: 68%
Praha - Kbely (Praha/Kbe) 18.08.2019 02:00 UTC Zobrazit data
Místo: Praha - Kbely
Teplota: 18 °C (pocitová: 16.7 °C)
Vítr: 3 m/s z(e) 190°
Počasí: skoro zataženo
Dohlednost: 25 km
Zákl. oblačnosti: 6/8 3000 m
Vlhkost: 68%
Praha - Libuš (Praha/Lib) 18.08.2019 02:00 UTC Zobrazit data
Místo: Praha - Libuš
Teplota: 18 °C (pocitová: 17.2 °C)
Vítr: 2 m/s z(e) 0°
Počasí: skoro zataženo
Dohlednost: 35 km
Zákl. oblačnosti: 7/8 2700 m
Vlhkost: 68%
Praha - Ruzyně (Praha/Ru) 18.08.2019 02:00 UTC Zobrazit data
Místo: Praha - Ruzyně
Teplota: 17 °C (pocitová: 15.9 °C)
Vítr: 2 m/s z(e) 180°
Počasí: skoro zataženo
Dohlednost: 50 km
Zákl. oblačnosti: 3/8 2100 m;6/8 3000 m
Vlhkost: 73%
Přibyslav (Pribyslav) 18.08.2019 02:00 UTC Zobrazit data
Místo: Přibyslav
Teplota: 17 °C (pocitová: 15.3 °C)
Vítr: 3 m/s z(e) 100°
Počasí: zataženo
Dohlednost: 35 km
Zákl. oblačnosti: 3/8 1500 m;8/8 2100 m
Vlhkost: 68%
Přimda (Primda) 18.08.2019 02:00 UTC Zobrazit data
Místo: Přimda
Teplota: 13 °C (pocitová: 10.8 °C)
Vítr: 2 m/s z(e) 230°
Počasí: zataženo
Dohlednost: 30 km
Zákl. oblačnosti: 3/8 930 m;7/8 4200 m
Vlhkost: 100%
Šerák (Serak) 18.08.2019 02:00 UTC Zobrazit data
Místo: Šerák
Teplota: 11 °C (pocitová: 5.1 °C)
Vítr: 8 m/s z(e) 250°
Počasí: zataženo
Dohlednost: 35 km
Zákl. oblačnosti: 8/8 3000 m
Vlhkost: 82%
Svratouch (Svratouch) 18.08.2019 02:00 UTC Zobrazit data
Místo: Svratouch
Teplota: 16 °C (pocitová: 13.5 °C)
Vítr: 4 m/s z(e) 190°
Počasí: zataženo
Dohlednost: 35 km
Zákl. oblačnosti: 8/8 1500 m
Vlhkost: 72%
Temelín (Temelin) 18.08.2019 02:00 UTC Zobrazit data
Místo: Temelín
Teplota: 18 °C (pocitová: 16.7 °C)
Vítr: 3 m/s z(e) 260°
Počasí: zataženo
Dohlednost: 35 km
Zákl. oblačnosti: 8/8 2700 m
Vlhkost: 73%
Ústí nad Labem - Kočkov (Usti n/L) 18.08.2019 02:00 UTC Zobrazit data
Místo: Ústí nad Labem - Kočkov
Teplota: 17 °C (pocitová: 15.9 °C)
Vítr: 2 m/s z(e) 170°
Počasí: zataženo
Dohlednost: 35 km
Zákl. oblačnosti: 8/8 2100 m
Vlhkost: 73%
Ústí nad Orlicí (Usti n/O) 18.08.2019 02:00 UTC Zobrazit data
Místo: Ústí nad Orlicí
Teplota: 16 °C (pocitová: 15.3 °C)
Vítr: 1 m/s z(e) 0°
Počasí: zataženo
Dohlednost: 35 km
Zákl. oblačnosti: 6/8 1800 m;8/8 3900 m
Vlhkost: 88%
Aalborg (EKYT) 18.08.2019 00:50 UTC Zobrazit METAR
EKYT 180050Z AUTO 17003KT 9999 FEW060/// 14/13 Q1004
Aarhus (EKAH) 17.07.2019 05:50 UTC Zobrazit METAR
EKAH 170550Z 33004KT 300V010 9999 FEW003 14/13 Q1015
Abu Dhabi (OMAA) 18.08.2019 02:00 UTC Zobrazit METAR
OMAA 180200Z 08003KT 040V110 7000 NSC 34/28 Q0999 NOSIG
Abuja (DNAA) 18.08.2019 02:00 UTC Zobrazit METAR
DNAA 180200Z 06004KT 9999 SCT008 23/21 Q1013 NOSIG
Accra (DGAA) 18.08.2019 02:00 UTC Zobrazit METAR
DGAA 180200Z 23008KT 9999 BKN011 OVC016 25/23 Q1012 NOSIG
Addis Abeba (HAAB) 17.08.2019 23:00 UTC Zobrazit METAR
HAAB 172300Z 19004KT 9999 BKN025 14/12 Q1025
Agana (PGUM) 18.08.2019 01:54 UTC Zobrazit METAR
PGUM 180154Z 36005KT 10SM BKN023 BKN035 OVC044 29/25 A2980 RMK AO2 SLP082 T02890250
Ahe Island (NTHE) Zatím nenačteno  
Akureyri (BIAR) 18.08.2019 02:00 UTC Zobrazit METAR
BIAR 180200Z 34015KT 9999 SCT016 OVC019 07/04 Q1004
Almaty (UAAA) Zatím nenačteno  
Amman (OJAM) 18.08.2019 02:00 UTC Zobrazit METAR
OJAM 180200Z 32005KT 5000 HZ SCT030 20/17 Q1011 NOSIG
Amsterdam (EHAM) 18.08.2019 01:55 UTC Zobrazit METAR
EHAM 180155Z 20009KT 9999 -RA NSC 16/14 Q1005 NOSIG
Antananarivo (FMMI) 18.08.2019 02:00 UTC Zobrazit METAR
FMMI 180200Z 04001KT 9999 FEW020 07/07 Q1022 NOSIG
1 2 3 ... 9 Další
Reklama

Počasí na Váš email

Emaily jsou bez reklamy a bez spamu



Odhlásit newsletter

Reklama


Lunární kalendář

  • 23.08.
  • 30.08.
  • 06.09.
  • 14.09.



Reklama


Reklama
Povinné ručení
Reklama



Reklama